sensor_id;sensor_type;location;lat;lon;timestamp;temperature;humidity
68274;SHT30;55104;47.356;19.448;2022-12-29T00:00:19;-0.60;93.42
68274;SHT30;55104;47.356;19.448;2022-12-29T00:03:21;-0.65;93.23
68274;SHT30;55104;47.356;19.448;2022-12-29T00:06:23;-0.58;93.30
68274;SHT30;55104;47.356;19.448;2022-12-29T00:09:26;-0.60;93.05
68274;SHT30;55104;47.356;19.448;2022-12-29T00:12:28;-0.69;93.10
68274;SHT30;55104;47.356;19.448;2022-12-29T00:15:50;-0.78;93.09
68274;SHT30;55104;47.356;19.448;2022-12-29T00:18:52;-0.69;93.73
68274;SHT30;55104;47.356;19.448;2022-12-29T00:21:55;-0.75;93.31
68274;SHT30;55104;47.356;19.448;2022-12-29T00:25:16;-0.78;93.15
68274;SHT30;55104;47.356;19.448;2022-12-29T00:28:36;-0.81;93.24
68274;SHT30;55104;47.356;19.448;2022-12-29T00:31:57;-0.82;93.25
68274;SHT30;55104;47.356;19.448;2022-12-29T00:35:30;-0.86;93.43
68274;SHT30;55104;47.356;19.448;2022-12-29T00:38:37;-0.91;93.54
68274;SHT30;55104;47.356;19.448;2022-12-29T00:42:04;-0.84;93.69
68274;SHT30;55104;47.356;19.448;2022-12-29T00:45:25;-0.86;93.62
68274;SHT30;55104;47.356;19.448;2022-12-29T00:48:27;-0.81;93.67
68274;SHT30;55104;47.356;19.448;2022-12-29T00:51:48;-0.86;93.41
68274;SHT30;55104;47.356;19.448;2022-12-29T00:54:50;-0.79;93.69
68274;SHT30;55104;47.356;19.448;2022-12-29T00:57:52;-0.71;93.55
68274;SHT30;55104;47.356;19.448;2022-12-29T01:01:05;-0.69;93.53
68274;SHT30;55104;47.356;19.448;2022-12-29T01:04:08;-0.77;93.29
68274;SHT30;55104;47.356;19.448;2022-12-29T01:07:11;-0.79;93.41
68274;SHT30;55104;47.356;19.448;2022-12-29T01:10:13;-0.84;93.60
68274;SHT30;55104;47.356;19.448;2022-12-29T01:13:16;-0.89;93.90
68274;SHT30;55104;47.356;19.448;2022-12-29T01:16:18;-0.81;94.09
68274;SHT30;55104;47.356;19.448;2022-12-29T01:19:21;-0.71;93.84
68274;SHT30;55104;47.356;19.448;2022-12-29T01:22:23;-0.74;93.37
68274;SHT30;55104;47.356;19.448;2022-12-29T01:25:25;-0.78;93.31
68274;SHT30;55104;47.356;19.448;2022-12-29T01:28:27;-0.86;93.17
68274;SHT30;55104;47.356;19.448;2022-12-29T01:31:29;-0.82;93.72
68274;SHT30;55104;47.356;19.448;2022-12-29T01:34:32;-0.84;93.57
68274;SHT30;55104;47.356;19.448;2022-12-29T01:37:34;-0.74;93.39
68274;SHT30;55104;47.356;19.448;2022-12-29T01:40:44;-0.68;93.32
68274;SHT30;55104;47.356;19.448;2022-12-29T01:43:55;-0.68;93.23
68274;SHT30;55104;47.356;19.448;2022-12-29T01:47:04;-0.69;93.09
68274;SHT30;55104;47.356;19.448;2022-12-29T01:50:26;-0.71;93.08
68274;SHT30;55104;47.356;19.448;2022-12-29T01:53:31;-0.77;93.18
68274;SHT30;55104;47.356;19.448;2022-12-29T01:56:35;-0.85;93.35
68274;SHT30;55104;47.356;19.448;2022-12-29T01:59:45;-0.81;93.73
68274;SHT30;55104;47.356;19.448;2022-12-29T02:02:53;-0.84;93.45
68274;SHT30;55104;47.356;19.448;2022-12-29T02:08:58;-0.84;93.77
68274;SHT30;55104;47.356;19.448;2022-12-29T02:12:01;-0.88;93.71
68274;SHT30;55104;47.356;19.448;2022-12-29T02:15:04;-0.84;93.69
68274;SHT30;55104;47.356;19.448;2022-12-29T02:29:00;-0.85;93.89
68274;SHT30;55104;47.356;19.448;2022-12-29T02:31:59;-0.88;93.91
68274;SHT30;55104;47.356;19.448;2022-12-29T02:35:29;-0.93;93.92
68274;SHT30;55104;47.356;19.448;2022-12-29T02:42:14;-0.96;93.92
68274;SHT30;55104;47.356;19.448;2022-12-29T02:48:44;-0.92;94.08
68274;SHT30;55104;47.356;19.448;2022-12-29T02:51:51;-0.91;94.38
68274;SHT30;55104;47.356;19.448;2022-12-29T02:54:55;-0.86;94.50
68274;SHT30;55104;47.356;19.448;2022-12-29T02:58:26;-0.78;94.25
68274;SHT30;55104;47.356;19.448;2022-12-29T03:08:31;-0.84;93.99
68274;SHT30;55104;47.356;19.448;2022-12-29T03:11:46;-0.89;94.30
68274;SHT30;55104;47.356;19.448;2022-12-29T03:15:13;-0.89;94.41
68274;SHT30;55104;47.356;19.448;2022-12-29T03:21:59;-0.99;94.39
68274;SHT30;55104;47.356;19.448;2022-12-29T03:25:30;-1.00;94.49
68274;SHT30;55104;47.356;19.448;2022-12-29T03:28:52;-1.09;94.49
68274;SHT30;55104;47.356;19.448;2022-12-29T03:31:59;-1.15;94.64
68274;SHT30;55104;47.356;19.448;2022-12-29T03:35:03;-1.23;94.87
68274;SHT30;55104;47.356;19.448;2022-12-29T03:38:10;-1.26;94.97
68274;SHT30;55104;47.356;19.448;2022-12-29T03:41:19;-1.34;95.30
68274;SHT30;55104;47.356;19.448;2022-12-29T03:44:38;-1.47;95.37
68274;SHT30;55104;47.356;19.448;2022-12-29T03:47:41;-1.50;95.69
68274;SHT30;55104;47.356;19.448;2022-12-29T03:50:44;-1.54;95.90
68274;SHT30;55104;47.356;19.448;2022-12-29T03:53:46;-1.60;96.10
68274;SHT30;55104;47.356;19.448;2022-12-29T03:56:48;-1.71;96.62
68274;SHT30;55104;47.356;19.448;2022-12-29T03:59:57;-1.70;96.60
68274;SHT30;55104;47.356;19.448;2022-12-29T04:02:59;-1.71;96.78
68274;SHT30;55104;47.356;19.448;2022-12-29T04:06:02;-1.70;96.92
68274;SHT30;55104;47.356;19.448;2022-12-29T04:09:12;-1.65;97.03
68274;SHT30;55104;47.356;19.448;2022-12-29T04:12:19;-1.62;96.97
68274;SHT30;55104;47.356;19.448;2022-12-29T04:15:21;-1.58;96.95
68274;SHT30;55104;47.356;19.448;2022-12-29T04:18:26;-1.55;96.83
68274;SHT30;55104;47.356;19.448;2022-12-29T04:21:28;-1.55;96.95
68274;SHT30;55104;47.356;19.448;2022-12-29T04:24:30;-1.58;96.90
68274;SHT30;55104;47.356;19.448;2022-12-29T04:27:33;-1.58;96.70
68274;SHT30;55104;47.356;19.448;2022-12-29T04:30:54;-1.60;96.68
68274;SHT30;55104;47.356;19.448;2022-12-29T04:34:08;-1.68;96.81
68274;SHT30;55104;47.356;19.448;2022-12-29T04:37:10;-1.72;96.96
68274;SHT30;55104;47.356;19.448;2022-12-29T04:40:12;-1.72;96.72
68274;SHT30;55104;47.356;19.448;2022-12-29T04:43:15;-1.70;96.56
68274;SHT30;55104;47.356;19.448;2022-12-29T04:46:37;-1.77;96.50
68274;SHT30;55104;47.356;19.448;2022-12-29T04:49:44;-1.77;96.45
68274;SHT30;55104;47.356;19.448;2022-12-29T04:53:05;-1.85;96.60
68274;SHT30;55104;47.356;19.448;2022-12-29T04:56:08;-1.81;96.44
68274;SHT30;55104;47.356;19.448;2022-12-29T04:59:11;-1.85;96.39
68274;SHT30;55104;47.356;19.448;2022-12-29T05:02:13;-1.90;96.42
68274;SHT30;55104;47.356;19.448;2022-12-29T05:05:16;-1.88;96.35
68274;SHT30;55104;47.356;19.448;2022-12-29T05:08:22;-1.85;96.29
68274;SHT30;55104;47.356;19.448;2022-12-29T05:11:31;-1.82;96.23
68274;SHT30;55104;47.356;19.448;2022-12-29T05:14:35;-1.79;96.10
68274;SHT30;55104;47.356;19.448;2022-12-29T05:17:37;-1.70;95.94
68274;SHT30;55104;47.356;19.448;2022-12-29T05:20:41;-1.72;95.75
68274;SHT30;55104;47.356;19.448;2022-12-29T05:23:43;-1.68;95.72
68274;SHT30;55104;47.356;19.448;2022-12-29T05:26:46;-1.71;95.44
68274;SHT30;55104;47.356;19.448;2022-12-29T05:30:07;-1.74;95.62
68274;SHT30;55104;47.356;19.448;2022-12-29T05:33:09;-1.72;95.36
68274;SHT30;55104;47.356;19.448;2022-12-29T05:36:14;-1.78;95.57
68274;SHT30;55104;47.356;19.448;2022-12-29T05:39:21;-1.74;95.33
68274;SHT30;55104;47.356;19.448;2022-12-29T05:42:28;-1.78;95.38
68274;SHT30;55104;47.356;19.448;2022-12-29T05:46:09;-1.74;95.13
68274;SHT30;55104;47.356;19.448;2022-12-29T05:49:21;-1.79;95.41
68274;SHT30;55104;47.356;19.448;2022-12-29T05:52:49;-1.81;95.23
68274;SHT30;55104;47.356;19.448;2022-12-29T05:55:51;-1.85;95.24
68274;SHT30;55104;47.356;19.448;2022-12-29T05:58:54;-1.83;95.20
68274;SHT30;55104;47.356;19.448;2022-12-29T06:01:57;-1.83;95.08
68274;SHT30;55104;47.356;19.448;2022-12-29T06:04:59;-1.83;95.27
68274;SHT30;55104;47.356;19.448;2022-12-29T06:08:01;-1.82;95.08
68274;SHT30;55104;47.356;19.448;2022-12-29T06:11:04;-1.82;95.18
68274;SHT30;55104;47.356;19.448;2022-12-29T06:14:06;-1.85;95.00
68274;SHT30;55104;47.356;19.448;2022-12-29T06:17:08;-1.89;95.08
68274;SHT30;55104;47.356;19.448;2022-12-29T06:20:11;-1.92;95.09
68274;SHT30;55104;47.356;19.448;2022-12-29T06:23:14;-1.93;95.01
68274;SHT30;55104;47.356;19.448;2022-12-29T06:26:16;-1.92;95.00
68274;SHT30;55104;47.356;19.448;2022-12-29T06:29:21;-1.93;94.93
68274;SHT30;55104;47.356;19.448;2022-12-29T06:32:23;-1.92;94.89
68274;SHT30;55104;47.356;19.448;2022-12-29T06:35:27;-1.98;94.95
68274;SHT30;55104;47.356;19.448;2022-12-29T06:38:29;-1.96;94.86
68274;SHT30;55104;47.356;19.448;2022-12-29T06:41:33;-1.98;94.92
68274;SHT30;55104;47.356;19.448;2022-12-29T06:45:07;-1.95;95.03
68274;SHT30;55104;47.356;19.448;2022-12-29T06:48:09;-1.92;94.98
68274;SHT30;55104;47.356;19.448;2022-12-29T06:51:12;-1.86;94.73
68274;SHT30;55104;47.356;19.448;2022-12-29T06:54:15;-1.83;94.65
68274;SHT30;55104;47.356;19.448;2022-12-29T06:57:17;-1.88;94.68
68274;SHT30;55104;47.356;19.448;2022-12-29T07:00:19;-1.86;94.77
68274;SHT30;55104;47.356;19.448;2022-12-29T07:03:24;-1.82;94.78
68274;SHT30;55104;47.356;19.448;2022-12-29T07:06:27;-1.79;94.74
68274;SHT30;55104;47.356;19.448;2022-12-29T07:09:29;-1.77;94.69
68274;SHT30;55104;47.356;19.448;2022-12-29T07:12:31;-1.67;94.47
68274;SHT30;55104;47.356;19.448;2022-12-29T07:15:35;-1.67;94.27
68274;SHT30;55104;47.356;19.448;2022-12-29T07:18:38;-1.58;94.29
68274;SHT30;55104;47.356;19.448;2022-12-29T07:21:40;-1.51;94.16
68274;SHT30;55104;47.356;19.448;2022-12-29T07:24:47;-1.44;94.05
68274;SHT30;55104;47.356;19.448;2022-12-29T07:27:49;-1.36;93.97
68274;SHT30;55104;47.356;19.448;2022-12-29T07:30:52;-1.36;93.71
68274;SHT30;55104;47.356;19.448;2022-12-29T07:33:54;-1.39;93.64
68274;SHT30;55104;47.356;19.448;2022-12-29T07:36:56;-1.29;93.61
68274;SHT30;55104;47.356;19.448;2022-12-29T07:39:58;-1.17;93.64
68274;SHT30;55104;47.356;19.448;2022-12-29T07:43:01;-1.19;93.75
68274;SHT30;55104;47.356;19.448;2022-12-29T07:46:16;-1.09;93.51
68274;SHT30;55104;47.356;19.448;2022-12-29T07:49:38;-1.06;93.29
68274;SHT30;55104;47.356;19.448;2022-12-29T07:52:40;-1.02;93.31
68274;SHT30;55104;47.356;19.448;2022-12-29T07:55:42;-0.97;93.21
68274;SHT30;55104;47.356;19.448;2022-12-29T07:58:44;-0.86;93.45
68274;SHT30;55104;47.356;19.448;2022-12-29T08:01:47;-0.81;93.34
68274;SHT30;55104;47.356;19.448;2022-12-29T08:04:49;-0.69;93.22
68274;SHT30;55104;47.356;19.448;2022-12-29T08:07:51;-0.56;93.03
68274;SHT30;55104;47.356;19.448;2022-12-29T08:10:53;-0.40;92.79
68274;SHT30;55104;47.356;19.448;2022-12-29T08:13:55;-0.20;92.50
68274;SHT30;55104;47.356;19.448;2022-12-29T08:16:57;-0.19;92.50
68274;SHT30;55104;47.356;19.448;2022-12-29T08:20:00;-0.27;92.15
68274;SHT30;55104;47.356;19.448;2022-12-29T08:23:02;-0.12;92.66
68274;SHT30;55104;47.356;19.448;2022-12-29T08:26:05;-0.06;92.54
68274;SHT30;55104;47.356;19.448;2022-12-29T08:29:07;-0.06;92.49
68274;SHT30;55104;47.356;19.448;2022-12-29T08:32:10;-0.06;92.36
68274;SHT30;55104;47.356;19.448;2022-12-29T08:35:12;0.01;92.51
68274;SHT30;55104;47.356;19.448;2022-12-29T08:38:14;-0.14;92.50
68274;SHT30;55104;47.356;19.448;2022-12-29T08:41:17;-0.13;92.52
68274;SHT30;55104;47.356;19.448;2022-12-29T08:44:19;-0.13;92.61
68274;SHT30;55104;47.356;19.448;2022-12-29T08:47:21;-0.12;92.72
68274;SHT30;55104;47.356;19.448;2022-12-29T08:50:23;-0.05;92.96
68274;SHT30;55104;47.356;19.448;2022-12-29T08:53:25;-0.01;92.52
68274;SHT30;55104;47.356;19.448;2022-12-29T08:56:28;0.05;92.50
68274;SHT30;55104;47.356;19.448;2022-12-29T08:59:32;0.08;92.33
68274;SHT30;55104;47.356;19.448;2022-12-29T09:02:34;0.14;92.13
68274;SHT30;55104;47.356;19.448;2022-12-29T09:05:36;0.14;92.07
68274;SHT30;55104;47.356;19.448;2022-12-29T09:08:38;0.06;92.04
68274;SHT30;55104;47.356;19.448;2022-12-29T09:11:41;0.09;92.05
68274;SHT30;55104;47.356;19.448;2022-12-29T09:14:45;0.14;92.29
68274;SHT30;55104;47.356;19.448;2022-12-29T09:17:48;0.28;92.29
68274;SHT30;55104;47.356;19.448;2022-12-29T09:20:59;0.16;92.08
68274;SHT30;55104;47.356;19.448;2022-12-29T09:24:01;0.15;92.10
68274;SHT30;55104;47.356;19.448;2022-12-29T09:27:03;0.28;92.62
68274;SHT30;55104;47.356;19.448;2022-12-29T09:30:08;0.24;92.05
68274;SHT30;55104;47.356;19.448;2022-12-29T09:33:11;0.22;92.22
68274;SHT30;55104;47.356;19.448;2022-12-29T09:36:13;0.21;92.24
68274;SHT30;55104;47.356;19.448;2022-12-29T09:39:15;0.59;93.01
68274;SHT30;55104;47.356;19.448;2022-12-29T09:42:41;0.91;92.37
68274;SHT30;55104;47.356;19.448;2022-12-29T09:49:27;0.80;90.75
68274;SHT30;55104;47.356;19.448;2022-12-29T09:52:46;0.64;91.10
68274;SHT30;55104;47.356;19.448;2022-12-29T09:55:51;0.59;91.83
68274;SHT30;55104;47.356;19.448;2022-12-29T09:59:24;0.52;91.81
68274;SHT30;55104;47.356;19.448;2022-12-29T10:02:34;0.53;92.22
68274;SHT30;55104;47.356;19.448;2022-12-29T10:23:26;0.70;92.43
68274;SHT30;55104;47.356;19.448;2022-12-29T10:26:22;0.79;92.21
68274;SHT30;55104;47.356;19.448;2022-12-29T10:29:35;0.88;92.06
68274;SHT30;55104;47.356;19.448;2022-12-29T10:35:41;1.07;92.23
68274;SHT30;55104;47.356;19.448;2022-12-29T10:38:51;1.15;92.07
68274;SHT30;55104;47.356;19.448;2022-12-29T10:42:04;1.26;91.70
68274;SHT30;55104;47.356;19.448;2022-12-29T10:45:13;1.42;91.33
68274;SHT30;55104;47.356;19.448;2022-12-29T10:48:22;1.36;90.63
68274;SHT30;55104;47.356;19.448;2022-12-29T10:51:36;1.32;90.96
68274;SHT30;55104;47.356;19.448;2022-12-29T10:54:47;1.36;91.07
68274;SHT30;55104;47.356;19.448;2022-12-29T10:57:51;1.33;90.94
68274;SHT30;55104;47.356;19.448;2022-12-29T11:00:54;1.38;91.02
68274;SHT30;55104;47.356;19.448;2022-12-29T11:07:16;1.31;90.97
68274;SHT30;55104;47.356;19.448;2022-12-29T11:10:37;1.21;91.07
68274;SHT30;55104;47.356;19.448;2022-12-29T11:13:50;1.26;91.11
68274;SHT30;55104;47.356;19.448;2022-12-29T11:17:00;1.25;91.18
68274;SHT30;55104;47.356;19.448;2022-12-29T11:23:40;1.16;91.02
68274;SHT30;55104;47.356;19.448;2022-12-29T11:26:43;1.21;91.41
68274;SHT30;55104;47.356;19.448;2022-12-29T11:29:46;1.16;91.25
68274;SHT30;55104;47.356;19.448;2022-12-29T11:32:52;1.16;91.03
68274;SHT30;55104;47.356;19.448;2022-12-29T11:36:19;1.16;91.64
68274;SHT30;55104;47.356;19.448;2022-12-29T11:43:02;1.14;91.88
68274;SHT30;55104;47.356;19.448;2022-12-29T11:46:05;1.38;91.57
68274;SHT30;55104;47.356;19.448;2022-12-29T11:49:13;1.36;91.63
68274;SHT30;55104;47.356;19.448;2022-12-29T11:52:23;1.64;91.99
68274;SHT30;55104;47.356;19.448;2022-12-29T11:55:26;1.81;90.71
68274;SHT30;55104;47.356;19.448;2022-12-29T11:58:32;1.91;89.94
68274;SHT30;55104;47.356;19.448;2022-12-29T12:01:37;1.87;89.73
68274;SHT30;55104;47.356;19.448;2022-12-29T12:04:40;1.88;89.84
68274;SHT30;55104;47.356;19.448;2022-12-29T12:07:52;1.80;90.04
68274;SHT30;55104;47.356;19.448;2022-12-29T12:11:09;1.85;89.90
68274;SHT30;55104;47.356;19.448;2022-12-29T12:14:41;1.88;89.72
68274;SHT30;55104;47.356;19.448;2022-12-29T12:28:12;2.17;89.39
68274;SHT30;55104;47.356;19.448;2022-12-29T12:31:33;2.12;89.53
68274;SHT30;55104;47.356;19.448;2022-12-29T12:34:43;2.18;89.27
68274;SHT30;55104;47.356;19.448;2022-12-29T12:41:24;2.15;88.92
68274;SHT30;55104;47.356;19.448;2022-12-29T12:48:26;2.19;89.25
68274;SHT30;55104;47.356;19.448;2022-12-29T13:01:38;2.36;89.47
68274;SHT30;55104;47.356;19.448;2022-12-29T13:37:27;2.19;89.56
68274;SHT30;55104;47.356;19.448;2022-12-29T13:40:33;2.21;89.56
68274;SHT30;55104;47.356;19.448;2022-12-29T13:43:39;2.14;89.52
68274;SHT30;55104;47.356;19.448;2022-12-29T13:46:44;2.01;90.09
68274;SHT30;55104;47.356;19.448;2022-12-29T13:49:49;2.04;90.20
68274;SHT30;55104;47.356;19.448;2022-12-29T13:59:48;1.97;90.52
68274;SHT30;55104;47.356;19.448;2022-12-29T14:06:25;1.88;90.74
68274;SHT30;55104;47.356;19.448;2022-12-29T14:09:42;1.84;90.91
68274;SHT30;55104;47.356;19.448;2022-12-29T14:12:46;1.77;91.13
68274;SHT30;55104;47.356;19.448;2022-12-29T14:15:55;1.77;91.11
68274;SHT30;55104;47.356;19.448;2022-12-29T14:19:16;1.67;91.42
68274;SHT30;55104;47.356;19.448;2022-12-29T14:22:26;1.62;91.56
68274;SHT30;55104;47.356;19.448;2022-12-29T14:35:44;1.40;91.84
68274;SHT30;55104;47.356;19.448;2022-12-29T14:38:47;1.29;92.32
68274;SHT30;55104;47.356;19.448;2022-12-29T14:48:32;1.14;92.92
68274;SHT30;55104;47.356;19.448;2022-12-29T14:51:36;1.04;93.09
68274;SHT30;55104;47.356;19.448;2022-12-29T14:58:00;1.02;93.43
68274;SHT30;55104;47.356;19.448;2022-12-29T15:01:02;0.97;93.49
68274;SHT30;55104;47.356;19.448;2022-12-29T15:04:20;0.95;93.51
68274;SHT30;55104;47.356;19.448;2022-12-29T15:07:23;0.92;93.78
68274;SHT30;55104;47.356;19.448;2022-12-29T15:10:27;0.84;93.76
68274;SHT30;55104;47.356;19.448;2022-12-29T15:13:39;0.80;94.19
68274;SHT30;55104;47.356;19.448;2022-12-29T15:16:43;0.83;94.29
68274;SHT30;55104;47.356;19.448;2022-12-29T15:19:45;0.74;94.50
68274;SHT30;55104;47.356;19.448;2022-12-29T15:22:53;0.71;94.48
68274;SHT30;55104;47.356;19.448;2022-12-29T15:28:59;0.63;94.68
68274;SHT30;55104;47.356;19.448;2022-12-29T15:32:20;0.61;94.87
68274;SHT30;55104;47.356;19.448;2022-12-29T15:35:32;0.60;94.89
68274;SHT30;55104;47.356;19.448;2022-12-29T15:38:36;0.53;94.96
68274;SHT30;55104;47.356;19.448;2022-12-29T15:41:52;0.53;94.86
68274;SHT30;55104;47.356;19.448;2022-12-29T15:45:05;0.50;95.26
68274;SHT30;55104;47.356;19.448;2022-12-29T15:48:18;0.46;95.42
68274;SHT30;55104;47.356;19.448;2022-12-29T15:51:36;0.48;95.63
68274;SHT30;55104;47.356;19.448;2022-12-29T15:54:42;0.43;95.67
68274;SHT30;55104;47.356;19.448;2022-12-29T15:57:44;0.48;95.86
68274;SHT30;55104;47.356;19.448;2022-12-29T16:00:52;0.46;95.75
68274;SHT30;55104;47.356;19.448;2022-12-29T16:03:56;0.43;95.78
68274;SHT30;55104;47.356;19.448;2022-12-29T16:07:02;0.42;95.77
68274;SHT30;55104;47.356;19.448;2022-12-29T16:10:21;0.38;96.00
68274;SHT30;55104;47.356;19.448;2022-12-29T16:16:29;0.32;95.93
68274;SHT30;55104;47.356;19.448;2022-12-29T16:19:35;0.30;95.95
68274;SHT30;55104;47.356;19.448;2022-12-29T16:22:40;0.29;96.11
68274;SHT30;55104;47.356;19.448;2022-12-29T16:25:42;0.30;96.06
68274;SHT30;55104;47.356;19.448;2022-12-29T16:28:47;0.24;96.21
68274;SHT30;55104;47.356;19.448;2022-12-29T16:31:54;0.25;96.22
68274;SHT30;55104;47.356;19.448;2022-12-29T16:38:22;0.22;96.04
68274;SHT30;55104;47.356;19.448;2022-12-29T16:41:31;0.18;96.09
68274;SHT30;55104;47.356;19.448;2022-12-29T16:44:34;0.21;96.11
68274;SHT30;55104;47.356;19.448;2022-12-29T16:47:37;0.21;96.06
68274;SHT30;55104;47.356;19.448;2022-12-29T16:50:41;0.22;95.99
68274;SHT30;55104;47.356;19.448;2022-12-29T16:53:49;0.19;95.84
68274;SHT30;55104;47.356;19.448;2022-12-29T16:56:53;0.19;96.04
68274;SHT30;55104;47.356;19.448;2022-12-29T16:59:59;0.14;96.05
68274;SHT30;55104;47.356;19.448;2022-12-29T17:03:02;0.19;96.00
68274;SHT30;55104;47.356;19.448;2022-12-29T17:06:05;0.21;95.93
68274;SHT30;55104;47.356;19.448;2022-12-29T17:09:21;0.22;95.84
68274;SHT30;55104;47.356;19.448;2022-12-29T17:12:26;0.18;95.82
68274;SHT30;55104;47.356;19.448;2022-12-29T17:15:29;0.22;95.83
68274;SHT30;55104;47.356;19.448;2022-12-29T17:18:36;0.21;95.88
68274;SHT30;55104;47.356;19.448;2022-12-29T17:21:38;0.18;95.88
68274;SHT30;55104;47.356;19.448;2022-12-29T17:24:41;0.24;95.89
68274;SHT30;55104;47.356;19.448;2022-12-29T17:27:50;0.22;95.92
68274;SHT30;55104;47.356;19.448;2022-12-29T17:31:02;0.22;95.97
68274;SHT30;55104;47.356;19.448;2022-12-29T17:34:04;0.26;95.95
68274;SHT30;55104;47.356;19.448;2022-12-29T17:40:32;0.26;95.92
68274;SHT30;55104;47.356;19.448;2022-12-29T17:43:34;0.38;95.82
68274;SHT30;55104;47.356;19.448;2022-12-29T17:46:38;0.41;95.62
68274;SHT30;55104;47.356;19.448;2022-12-29T17:49:40;0.41;95.59
68274;SHT30;55104;47.356;19.448;2022-12-29T17:52:53;0.39;95.51
68274;SHT30;55104;47.356;19.448;2022-12-29T17:56:02;0.36;95.47
68274;SHT30;55104;47.356;19.448;2022-12-29T17:59:11;0.38;95.65
68274;SHT30;55104;47.356;19.448;2022-12-29T18:02:26;0.42;95.51
68274;SHT30;55104;47.356;19.448;2022-12-29T18:05:30;0.38;95.52
68274;SHT30;55104;47.356;19.448;2022-12-29T18:08:36;0.45;95.52
68274;SHT30;55104;47.356;19.448;2022-12-29T18:11:41;0.43;95.46
68274;SHT30;55104;47.356;19.448;2022-12-29T18:14:43;0.45;95.62
68274;SHT30;55104;47.356;19.448;2022-12-29T18:17:46;0.45;95.52
68274;SHT30;55104;47.356;19.448;2022-12-29T18:20:51;0.46;95.53
68274;SHT30;55104;47.356;19.448;2022-12-29T18:23:54;0.46;95.56
68274;SHT30;55104;47.356;19.448;2022-12-29T18:26:56;0.43;95.51
68274;SHT30;55104;47.356;19.448;2022-12-29T18:29:58;0.42;95.60
68274;SHT30;55104;47.356;19.448;2022-12-29T18:33:00;0.46;95.42
68274;SHT30;55104;47.356;19.448;2022-12-29T18:36:04;0.45;95.47
68274;SHT30;55104;47.356;19.448;2022-12-29T18:39:06;0.39;95.43
68274;SHT30;55104;47.356;19.448;2022-12-29T18:42:09;0.38;95.40
68274;SHT30;55104;47.356;19.448;2022-12-29T18:45:19;0.39;95.48
68274;SHT30;55104;47.356;19.448;2022-12-29T18:48:21;0.35;95.53
68274;SHT30;55104;47.356;19.448;2022-12-29T18:51:24;0.30;95.66
68274;SHT30;55104;47.356;19.448;2022-12-29T18:54:31;0.32;95.53
68274;SHT30;55104;47.356;19.448;2022-12-29T18:57:33;0.24;95.67
68274;SHT30;55104;47.356;19.448;2022-12-29T19:00:35;0.24;95.77
68274;SHT30;55104;47.356;19.448;2022-12-29T19:03:38;0.29;95.90
68274;SHT30;55104;47.356;19.448;2022-12-29T19:06:41;0.28;95.82
68274;SHT30;55104;47.356;19.448;2022-12-29T19:09:43;0.26;95.88
68274;SHT30;55104;47.356;19.448;2022-12-29T19:12:45;0.32;95.80
68274;SHT30;55104;47.356;19.448;2022-12-29T19:15:48;0.35;95.67
68274;SHT30;55104;47.356;19.448;2022-12-29T19:18:50;0.33;95.62
68274;SHT30;55104;47.356;19.448;2022-12-29T19:22:10;0.32;95.79
68274;SHT30;55104;47.356;19.448;2022-12-29T19:25:12;0.39;95.64
68274;SHT30;55104;47.356;19.448;2022-12-29T19:28:26;0.43;95.61
68274;SHT30;55104;47.356;19.448;2022-12-29T19:31:28;0.45;95.66
68274;SHT30;55104;47.356;19.448;2022-12-29T19:34:30;0.43;95.36
68274;SHT30;55104;47.356;19.448;2022-12-29T19:37:32;0.39;95.37
68274;SHT30;55104;47.356;19.448;2022-12-29T19:40:41;0.43;95.36
68274;SHT30;55104;47.356;19.448;2022-12-29T19:43:43;0.43;95.23
68274;SHT30;55104;47.356;19.448;2022-12-29T19:46:45;0.43;95.20
68274;SHT30;55104;47.356;19.448;2022-12-29T19:49:47;0.42;95.26
68274;SHT30;55104;47.356;19.448;2022-12-29T19:52:51;0.33;95.32
68274;SHT30;55104;47.356;19.448;2022-12-29T19:56:06;0.33;95.35
68274;SHT30;55104;47.356;19.448;2022-12-29T19:59:09;0.38;95.34
68274;SHT30;55104;47.356;19.448;2022-12-29T20:02:32;0.36;95.30
68274;SHT30;55104;47.356;19.448;2022-12-29T20:05:34;0.35;95.36
68274;SHT30;55104;47.356;19.448;2022-12-29T20:08:37;0.36;95.15
68274;SHT30;55104;47.356;19.448;2022-12-29T20:11:40;0.36;95.02
68274;SHT30;55104;47.356;19.448;2022-12-29T20:14:44;0.35;95.05
68274;SHT30;55104;47.356;19.448;2022-12-29T20:17:46;0.35;95.05
68274;SHT30;55104;47.356;19.448;2022-12-29T20:21:13;0.32;95.15
68274;SHT30;55104;47.356;19.448;2022-12-29T20:24:16;0.32;95.23
68274;SHT30;55104;47.356;19.448;2022-12-29T20:27:18;0.33;95.30
68274;SHT30;55104;47.356;19.448;2022-12-29T20:30:20;0.36;95.12
68274;SHT30;55104;47.356;19.448;2022-12-29T20:33:22;0.39;95.23
68274;SHT30;55104;47.356;19.448;2022-12-29T20:36:27;0.41;95.04
68274;SHT30;55104;47.356;19.448;2022-12-29T20:39:29;0.38;95.02
68274;SHT30;55104;47.356;19.448;2022-12-29T20:42:35;0.35;94.96
68274;SHT30;55104;47.356;19.448;2022-12-29T20:45:37;0.38;95.06
68274;SHT30;55104;47.356;19.448;2022-12-29T20:48:40;0.33;95.24
68274;SHT30;55104;47.356;19.448;2022-12-29T20:51:42;0.35;95.33
68274;SHT30;55104;47.356;19.448;2022-12-29T20:55:06;0.38;95.59
68274;SHT30;55104;47.356;19.448;2022-12-29T20:58:08;0.36;95.95
68274;SHT30;55104;47.356;19.448;2022-12-29T21:01:26;0.39;96.17
68274;SHT30;55104;47.356;19.448;2022-12-29T21:04:28;0.36;96.76
68274;SHT30;55104;47.356;19.448;2022-12-29T21:07:51;0.35;96.97
68274;SHT30;55104;47.356;19.448;2022-12-29T21:10:53;0.36;96.80
68274;SHT30;55104;47.356;19.448;2022-12-29T21:13:55;0.36;97.07
68274;SHT30;55104;47.356;19.448;2022-12-29T21:17:02;0.32;96.91
68274;SHT30;55104;47.356;19.448;2022-12-29T21:20:04;0.38;97.36
68274;SHT30;55104;47.356;19.448;2022-12-29T21:23:06;0.39;97.41
68274;SHT30;55104;47.356;19.448;2022-12-29T21:26:10;0.35;97.22
68274;SHT30;55104;47.356;19.448;2022-12-29T21:29:12;0.38;97.24
68274;SHT30;55104;47.356;19.448;2022-12-29T21:32:14;0.43;97.29
68274;SHT30;55104;47.356;19.448;2022-12-29T21:35:16;0.45;97.20
68274;SHT30;55104;47.356;19.448;2022-12-29T21:38:18;0.46;97.40
68274;SHT30;55104;47.356;19.448;2022-12-29T21:41:21;0.53;97.70
68274;SHT30;55104;47.356;19.448;2022-12-29T21:44:23;0.54;97.79
68274;SHT30;55104;47.356;19.448;2022-12-29T21:47:44;0.53;98.07
68274;SHT30;55104;47.356;19.448;2022-12-29T21:51:07;0.52;98.08
68274;SHT30;55104;47.356;19.448;2022-12-29T21:54:31;0.53;98.24
68274;SHT30;55104;47.356;19.448;2022-12-29T21:57:52;0.59;98.35
68274;SHT30;55104;47.356;19.448;2022-12-29T22:01:13;0.59;98.50
68274;SHT30;55104;47.356;19.448;2022-12-29T22:04:33;0.60;98.84
68274;SHT30;55104;47.356;19.448;2022-12-29T22:07:54;0.60;98.84
68274;SHT30;55104;47.356;19.448;2022-12-29T22:11:14;0.56;98.64
68274;SHT30;55104;47.356;19.448;2022-12-29T22:14:35;0.59;98.98
68274;SHT30;55104;47.356;19.448;2022-12-29T22:17:37;0.54;99.13
68274;SHT30;55104;47.356;19.448;2022-12-29T22:20:47;0.56;99.20
68274;SHT30;55104;47.356;19.448;2022-12-29T22:23:49;0.60;99.28